createdAt,value
2022-12-03T00:00:22.973Z,28.00
2022-12-03T00:01:23.011Z,27.00
2022-12-03T00:02:23.121Z,27.40
2022-12-03T00:03:23.093Z,28.70
2022-12-03T00:04:22.930Z,28.40
2022-12-03T00:05:22.903Z,28.60
2022-12-03T00:06:22.891Z,28.70
2022-12-03T00:07:23.163Z,29.20
2022-12-03T00:08:22.873Z,28.70
2022-12-03T00:09:22.874Z,29.00
2022-12-03T00:10:22.841Z,29.70
2022-12-03T00:11:22.849Z,29.10
2022-12-03T00:12:22.817Z,29.70
2022-12-03T00:13:22.802Z,31.40
2022-12-03T00:14:22.809Z,32.30
2022-12-03T00:15:22.777Z,32.10
2022-12-03T00:16:22.907Z,30.80
2022-12-03T00:17:22.764Z,36.30
2022-12-03T00:18:22.741Z,35.40
2022-12-03T00:19:22.750Z,38.10
2022-12-03T00:20:22.715Z,46.20
2022-12-03T00:21:24.606Z,39.20
2022-12-03T00:22:22.688Z,55.00
2022-12-03T00:23:22.676Z,59.50
2022-12-03T00:24:22.680Z,51.00
2022-12-03T00:25:22.656Z,38.30
2022-12-03T00:26:22.642Z,34.10
2022-12-03T00:27:22.643Z,31.40
2022-12-03T00:28:22.617Z,31.10
2022-12-03T00:29:22.614Z,30.50
2022-12-03T00:30:22.588Z,29.30
2022-12-03T00:31:22.652Z,29.20
2022-12-03T00:32:22.566Z,31.00
2022-12-03T00:33:22.553Z,30.70
2022-12-03T00:34:22.555Z,33.00
2022-12-03T00:35:22.527Z,29.10
2022-12-03T00:36:22.510Z,31.40
2022-12-03T00:37:22.502Z,32.50
2022-12-03T00:38:22.488Z,30.00
2022-12-03T00:39:22.488Z,31.40
2022-12-03T00:40:22.464Z,29.60
2022-12-03T00:41:22.445Z,32.40
2022-12-03T00:42:22.443Z,31.70
2022-12-03T00:43:22.446Z,30.20
2022-12-03T00:44:22.428Z,31.50
2022-12-03T00:45:22.395Z,30.10
2022-12-03T00:46:22.432Z,30.10
2022-12-03T00:47:22.373Z,31.50
2022-12-03T00:48:22.361Z,29.70
2022-12-03T00:49:22.360Z,31.60
2022-12-03T00:50:22.332Z,32.00
2022-12-03T00:51:22.318Z,32.20
2022-12-03T00:52:22.307Z,30.30
2022-12-03T00:53:22.299Z,32.10
2022-12-03T00:54:25.631Z,30.60
2022-12-03T00:55:22.274Z,30.40
2022-12-03T00:56:22.260Z,33.10
2022-12-03T00:57:22.248Z,31.10
2022-12-03T00:58:22.233Z,31.30
2022-12-03T00:59:22.255Z,30.60
2022-12-03T01:00:22.209Z,32.70
2022-12-03T01:01:22.308Z,31.60
2022-12-03T01:02:22.261Z,30.50
2022-12-03T01:03:22.165Z,30.60
2022-12-03T01:04:22.283Z,28.50
2022-12-03T01:05:22.151Z,29.60
2022-12-03T01:06:22.140Z,30.60
2022-12-03T01:07:22.114Z,29.10
2022-12-03T01:08:22.106Z,29.20
2022-12-03T01:09:22.110Z,31.40
2022-12-03T01:10:22.079Z,27.90
2022-12-03T01:11:22.065Z,31.50
2022-12-03T01:12:22.055Z,30.20
2022-12-03T01:13:22.045Z,30.80
2022-12-03T01:14:22.050Z,30.40
2022-12-03T01:15:22.042Z,29.50
2022-12-03T01:16:22.111Z,29.10
2022-12-03T01:17:21.993Z,30.00
2022-12-03T01:18:21.980Z,31.90
2022-12-03T01:19:22.009Z,30.40
2022-12-03T01:20:21.995Z,32.60
2022-12-03T01:21:21.941Z,31.00
2022-12-03T01:22:21.924Z,32.10
2022-12-03T01:23:21.920Z,31.40
2022-12-03T01:24:21.906Z,30.90
2022-12-03T01:25:21.931Z,31.90
2022-12-03T01:26:21.897Z,29.60
2022-12-03T01:27:21.882Z,30.50
2022-12-03T01:28:21.858Z,30.70
2022-12-03T01:29:21.836Z,33.10
2022-12-03T01:30:21.841Z,31.40
2022-12-03T01:31:21.910Z,31.70
2022-12-03T01:32:21.806Z,32.40
2022-12-03T01:33:21.791Z,30.70
2022-12-03T01:34:21.772Z,32.80
2022-12-03T01:35:21.777Z,32.10
2022-12-03T01:36:21.746Z,33.20
2022-12-03T01:37:21.738Z,32.10
2022-12-03T01:38:21.723Z,30.00
2022-12-03T01:39:21.720Z,31.40
2022-12-03T01:40:21.719Z,33.90
2022-12-03T01:41:21.686Z,31.80
2022-12-03T01:42:21.671Z,32.30
2022-12-03T01:43:21.658Z,30.70
2022-12-03T01:44:21.647Z,31.90
2022-12-03T01:45:21.651Z,33.00
2022-12-03T01:46:21.694Z,32.20
2022-12-03T01:47:21.627Z,31.10
2022-12-03T01:48:21.596Z,33.00
2022-12-03T01:49:21.583Z,30.70
2022-12-03T01:50:21.595Z,29.90
2022-12-03T01:51:21.560Z,31.50
2022-12-03T01:52:21.545Z,29.90
2022-12-03T01:53:21.558Z,31.90
2022-12-03T01:54:21.528Z,31.60
2022-12-03T01:55:21.525Z,31.60
2022-12-03T01:56:21.502Z,32.70
2022-12-03T01:57:21.505Z,32.50
2022-12-03T01:58:21.471Z,32.50
2022-12-03T01:59:21.462Z,31.40
2022-12-03T02:00:21.456Z,33.30
2022-12-03T02:01:21.491Z,29.60
2022-12-03T02:02:21.416Z,29.00
2022-12-03T02:03:21.429Z,30.10
2022-12-03T02:04:21.438Z,32.10
2022-12-03T02:05:21.398Z,30.80
2022-12-03T02:06:21.374Z,29.90
2022-12-03T02:07:21.368Z,31.00
2022-12-03T02:08:21.341Z,31.20
2022-12-03T02:09:21.329Z,30.70
2022-12-03T02:10:21.338Z,31.60
2022-12-03T02:11:21.323Z,34.60
2022-12-03T02:12:21.293Z,33.20
2022-12-03T02:13:21.285Z,33.20
2022-12-03T02:14:21.276Z,27.70
2022-12-03T02:15:21.267Z,31.70
2022-12-03T02:16:21.315Z,31.80
2022-12-03T02:17:21.239Z,32.60
2022-12-03T02:18:21.219Z,32.60
2022-12-03T02:19:21.254Z,30.40
2022-12-03T02:20:21.221Z,31.60
2022-12-03T02:21:21.181Z,32.70
2022-12-03T02:22:21.166Z,32.30
2022-12-03T02:23:21.155Z,29.60
2022-12-03T02:24:21.147Z,31.80
2022-12-03T02:25:21.165Z,29.50
2022-12-03T02:26:21.114Z,28.60
2022-12-03T02:27:21.114Z,28.70
2022-12-03T02:28:21.090Z,29.10
2022-12-03T02:29:21.078Z,28.30
2022-12-03T02:30:21.080Z,29.40
2022-12-03T02:31:21.098Z,27.90
2022-12-03T02:32:21.053Z,27.70
2022-12-03T02:33:21.027Z,28.90
2022-12-03T02:34:21.011Z,28.80
2022-12-03T02:35:21.041Z,28.00
2022-12-03T02:36:20.988Z,28.60
2022-12-03T02:37:20.978Z,27.30
2022-12-03T02:38:20.965Z,27.10
2022-12-03T02:39:20.950Z,30.50
2022-12-03T02:40:20.955Z,27.90
2022-12-03T02:41:20.930Z,27.70
2022-12-03T02:42:20.910Z,30.50
2022-12-03T02:43:20.899Z,27.00
2022-12-03T02:44:20.887Z,27.60
2022-12-03T02:45:20.878Z,27.60
2022-12-03T02:46:20.920Z,26.10
2022-12-03T02:47:20.849Z,27.80
2022-12-03T02:48:20.836Z,27.90
2022-12-03T02:49:20.826Z,28.20
2022-12-03T02:50:20.812Z,28.00
2022-12-03T02:51:20.863Z,27.70
2022-12-03T02:52:20.790Z,27.80
2022-12-03T02:53:20.806Z,28.00
2022-12-03T02:54:20.761Z,27.90
2022-12-03T02:55:21.619Z,27.30
2022-12-03T02:56:20.748Z,28.10
2022-12-03T02:57:20.727Z,28.60
2022-12-03T02:58:20.712Z,28.50
2022-12-03T02:59:20.698Z,27.80
2022-12-03T03:00:20.687Z,28.20
2022-12-03T03:01:20.751Z,27.40
2022-12-03T03:02:20.686Z,27.00
2022-12-03T03:03:20.651Z,26.70
2022-12-03T03:04:20.635Z,27.70
2022-12-03T03:05:20.626Z,24.50
2022-12-03T03:06:20.630Z,26.50
2022-12-03T03:07:20.619Z,26.20
2022-12-03T03:08:20.642Z,26.10
2022-12-03T03:09:20.601Z,27.10
2022-12-03T03:10:20.563Z,24.90
2022-12-03T03:11:20.572Z,25.70
2022-12-03T03:12:20.538Z,26.10
2022-12-03T03:13:20.529Z,26.50
2022-12-03T03:14:20.515Z,24.40
2022-12-03T03:15:20.504Z,24.90
2022-12-03T03:16:20.568Z,26.10
2022-12-03T03:17:20.478Z,26.30
2022-12-03T03:18:20.462Z,25.00
2022-12-03T03:19:20.448Z,26.10
2022-12-03T03:20:20.436Z,25.40
2022-12-03T03:21:20.447Z,25.10
2022-12-03T03:22:20.411Z,24.40
2022-12-03T03:23:20.420Z,25.90
2022-12-03T03:24:20.392Z,24.20
2022-12-03T03:25:20.397Z,23.50
2022-12-03T03:26:20.381Z,24.00
2022-12-03T03:27:20.353Z,24.50
2022-12-03T03:28:20.335Z,24.50
2022-12-03T03:29:20.324Z,23.70
2022-12-03T03:30:20.316Z,24.60
2022-12-03T03:31:20.352Z,24.10
2022-12-03T03:32:20.284Z,23.80
2022-12-03T03:33:20.273Z,23.70
2022-12-03T03:34:20.261Z,24.60
2022-12-03T03:35:20.248Z,24.40
2022-12-03T03:36:20.253Z,26.20
2022-12-03T03:37:20.225Z,23.10
2022-12-03T03:38:20.211Z,23.80
2022-12-03T03:39:20.222Z,24.70
2022-12-03T03:40:20.191Z,25.60
2022-12-03T03:41:20.193Z,22.00
2022-12-03T03:42:20.169Z,25.00
2022-12-03T03:43:20.155Z,23.50
2022-12-03T03:44:20.139Z,24.80
2022-12-03T03:45:24.150Z,25.30
2022-12-03T03:46:20.261Z,25.20
2022-12-03T03:47:20.104Z,22.90
2022-12-03T03:48:20.089Z,22.00
2022-12-03T03:49:20.077Z,20.30
2022-12-03T03:50:20.061Z,24.00
2022-12-03T03:51:20.078Z,21.80
2022-12-03T03:52:20.045Z,23.20
2022-12-03T03:53:20.038Z,20.10
2022-12-03T03:54:20.009Z,22.70
2022-12-03T03:55:20.645Z,23.00
2022-12-03T03:56:19.995Z,21.80
2022-12-03T03:57:19.996Z,23.50
2022-12-03T03:58:19.968Z,21.30
2022-12-03T03:59:19.950Z,21.20
2022-12-03T04:00:19.938Z,21.20
2022-12-03T04:01:20.036Z,20.60
2022-12-03T04:02:19.928Z,21.30
2022-12-03T04:03:19.903Z,21.30
2022-12-03T04:04:19.984Z,21.40
2022-12-03T04:05:19.873Z,21.30
2022-12-03T04:06:19.862Z,21.20
2022-12-03T04:07:19.865Z,20.80
2022-12-03T04:08:19.837Z,21.70
2022-12-03T04:09:19.828Z,22.40
2022-12-03T04:10:19.815Z,20.70
2022-12-03T04:11:19.819Z,21.90
2022-12-03T04:12:19.804Z,22.90
2022-12-03T04:13:19.779Z,20.90
2022-12-03T04:14:19.762Z,19.80
2022-12-03T04:15:19.750Z,20.10
2022-12-03T04:16:19.788Z,20.40
2022-12-03T04:17:19.749Z,21.50
2022-12-03T04:18:19.712Z,21.10
2022-12-03T04:19:19.699Z,21.30
2022-12-03T04:20:19.685Z,20.50
2022-12-03T04:21:19.675Z,21.20
2022-12-03T04:22:19.680Z,21.30
2022-12-03T04:23:19.688Z,19.50
2022-12-03T04:24:19.640Z,19.90
2022-12-03T04:25:19.627Z,18.00
2022-12-03T04:26:19.614Z,19.50
2022-12-03T04:27:19.638Z,20.70
2022-12-03T04:28:19.592Z,20.70
2022-12-03T04:29:19.572Z,20.10
2022-12-03T04:30:19.559Z,19.20
2022-12-03T04:31:19.616Z,19.90
2022-12-03T04:32:19.557Z,18.90
2022-12-03T04:33:19.525Z,21.40
2022-12-03T04:34:19.522Z,19.50
2022-12-03T04:35:19.576Z,20.40
2022-12-03T04:36:19.487Z,19.90
2022-12-03T04:37:19.492Z,19.60
2022-12-03T04:38:19.458Z,19.90
2022-12-03T04:39:19.449Z,20.00
2022-12-03T04:40:19.435Z,21.30
2022-12-03T04:41:19.424Z,20.30
2022-12-03T04:42:19.407Z,19.60
2022-12-03T04:43:19.432Z,20.80
2022-12-03T04:44:19.386Z,19.70
2022-12-03T04:45:19.372Z,21.00
2022-12-03T04:46:19.392Z,20.00
2022-12-03T04:47:19.347Z,20.60
2022-12-03T04:48:19.346Z,20.30
2022-12-03T04:49:19.334Z,22.00
2022-12-03T04:50:19.308Z,20.60
2022-12-03T04:51:19.299Z,22.30
2022-12-03T04:52:19.284Z,19.90
2022-12-03T04:53:19.289Z,21.30
2022-12-03T04:54:19.276Z,20.40
2022-12-03T04:55:19.247Z,20.30
2022-12-03T04:56:19.236Z,20.50
2022-12-03T04:57:19.225Z,19.20
2022-12-03T04:58:19.225Z,19.00
2022-12-03T04:59:19.223Z,17.80
2022-12-03T05:00:19.190Z,19.90
2022-12-03T05:01:19.278Z,20.10
2022-12-03T05:02:19.308Z,20.80
2022-12-03T05:03:19.168Z,20.30
2022-12-03T05:04:19.132Z,21.10
2022-12-03T05:05:19.130Z,19.80
2022-12-03T05:06:19.109Z,22.40
2022-12-03T05:07:19.096Z,21.60
2022-12-03T05:08:19.186Z,21.60
2022-12-03T05:09:19.074Z,21.60
2022-12-03T05:10:19.057Z,19.60
2022-12-03T05:11:19.061Z,19.10
2022-12-03T05:12:19.034Z,20.30
2022-12-03T05:13:19.039Z,21.50
2022-12-03T05:14:19.104Z,19.50
2022-12-03T05:15:19.017Z,20.60
2022-12-03T05:16:19.049Z,21.50
2022-12-03T05:17:18.970Z,19.60
2022-12-03T05:18:18.973Z,19.60
2022-12-03T05:19:18.964Z,19.10
2022-12-03T05:20:18.932Z,18.40
2022-12-03T05:21:18.922Z,20.00
2022-12-03T05:22:18.908Z,21.40
2022-12-03T05:23:18.936Z,19.10
2022-12-03T05:24:18.886Z,19.70
2022-12-03T05:25:18.873Z,19.70
2022-12-03T05:26:18.855Z,20.50
2022-12-03T05:27:23.483Z,20.00
2022-12-03T05:28:19.849Z,20.70
2022-12-03T05:29:18.822Z,18.70
2022-12-03T05:30:18.803Z,20.90
2022-12-03T05:31:18.889Z,20.90
2022-12-03T05:32:18.783Z,18.80
2022-12-03T05:33:18.785Z,19.60
2022-12-03T05:34:18.763Z,18.60
2022-12-03T05:35:18.740Z,18.80
2022-12-03T05:36:18.740Z,20.10
2022-12-03T05:37:18.718Z,19.10
2022-12-03T05:38:18.720Z,18.70
2022-12-03T05:39:18.691Z,20.10
2022-12-03T05:40:18.680Z,20.60
2022-12-03T05:41:18.667Z,19.10
2022-12-03T05:42:18.656Z,18.10
2022-12-03T05:43:18.664Z,19.20
2022-12-03T05:44:20.591Z,19.10
2022-12-03T05:45:18.628Z,19.30
2022-12-03T05:46:18.711Z,19.10
2022-12-03T05:47:18.614Z,20.00
2022-12-03T05:48:18.597Z,19.80
2022-12-03T05:49:18.566Z,20.80
2022-12-03T05:50:18.557Z,20.00
2022-12-03T05:51:18.539Z,20.00
2022-12-03T05:52:18.541Z,18.80
2022-12-03T05:53:18.521Z,19.80
2022-12-03T05:54:18.536Z,19.30
2022-12-03T05:55:18.532Z,19.10
2022-12-03T05:56:18.491Z,19.50
2022-12-03T05:57:18.463Z,20.20
2022-12-03T05:58:18.464Z,18.20
2022-12-03T05:59:18.463Z,19.40
2022-12-03T06:00:18.433Z,20.10
2022-12-03T06:01:18.443Z,19.90
2022-12-03T06:02:18.586Z,21.90
2022-12-03T06:03:18.598Z,21.90
2022-12-03T06:04:18.427Z,19.70
2022-12-03T06:05:18.396Z,20.20
2022-12-03T06:06:18.429Z,19.40
2022-12-03T06:07:18.441Z,19.50
2022-12-03T06:08:18.393Z,19.80
2022-12-03T06:09:18.390Z,18.60
2022-12-03T06:10:18.313Z,18.90
2022-12-03T06:11:18.303Z,19.00
2022-12-03T06:12:18.284Z,19.00
2022-12-03T06:13:18.266Z,19.00
2022-12-03T06:14:18.271Z,19.30
2022-12-03T06:15:18.239Z,19.10
2022-12-03T06:16:18.322Z,20.10
2022-12-03T06:17:18.230Z,20.70
2022-12-03T06:18:18.205Z,18.70
2022-12-03T06:19:18.551Z,18.90
2022-12-03T06:20:18.183Z,18.60
2022-12-03T06:21:19.074Z,20.90
2022-12-03T06:22:18.151Z,19.90
2022-12-03T06:23:18.136Z,18.90
2022-12-03T06:24:18.146Z,18.90
2022-12-03T06:25:18.109Z,21.30
2022-12-03T06:26:18.100Z,20.80
2022-12-03T06:27:18.092Z,20.00
2022-12-03T06:28:18.074Z,19.90
2022-12-03T06:29:18.079Z,18.80
2022-12-03T06:30:18.050Z,20.30
2022-12-03T06:31:18.121Z,20.20
2022-12-03T06:32:18.025Z,21.30
2022-12-03T06:33:18.012Z,20.80
2022-12-03T06:34:18.011Z,21.70
2022-12-03T06:35:18.005Z,20.80
2022-12-03T06:36:22.781Z,19.20
2022-12-03T06:37:17.963Z,21.90
2022-12-03T06:38:17.949Z,20.30
2022-12-03T06:39:17.955Z,21.90
2022-12-03T06:40:17.924Z,20.50
2022-12-03T06:41:17.921Z,19.70
2022-12-03T06:42:17.898Z,21.00
2022-12-03T06:43:17.889Z,21.10
2022-12-03T06:44:17.890Z,22.10
2022-12-03T06:45:17.857Z,21.10
2022-12-03T06:46:17.933Z,21.70
2022-12-03T06:47:17.845Z,21.60
2022-12-03T06:48:17.823Z,24.80
2022-12-03T06:49:17.825Z,22.10
2022-12-03T06:50:17.798Z,22.40
2022-12-03T06:51:17.806Z,23.20
2022-12-03T06:52:17.778Z,21.70
2022-12-03T06:53:17.761Z,22.70
2022-12-03T06:54:17.759Z,20.80
2022-12-03T06:55:17.733Z,22.20
2022-12-03T06:56:21.499Z,21.10
2022-12-03T06:57:17.712Z,19.70
2022-12-03T06:58:17.694Z,20.30
2022-12-03T06:59:17.699Z,21.90
2022-12-03T07:00:17.694Z,22.00
2022-12-03T07:01:17.691Z,21.70
2022-12-03T07:02:17.643Z,21.00
2022-12-03T07:03:17.669Z,22.90
2022-12-03T07:04:17.637Z,22.20
2022-12-03T07:05:17.616Z,23.00
2022-12-03T07:06:17.592Z,23.10
2022-12-03T07:07:17.604Z,27.60
2022-12-03T07:08:17.734Z,24.60
2022-12-03T07:09:17.575Z,22.80
2022-12-03T07:10:17.543Z,24.20
2022-12-03T07:11:17.532Z,22.50
2022-12-03T07:12:17.521Z,22.20
2022-12-03T07:13:17.506Z,23.70
2022-12-03T07:14:17.496Z,23.10
2022-12-03T07:15:17.492Z,23.30
2022-12-03T07:16:17.522Z,24.60
2022-12-03T07:17:17.454Z,23.30
2022-12-03T07:18:17.441Z,23.70
2022-12-03T07:19:17.433Z,26.10
2022-12-03T07:20:17.444Z,34.80
2022-12-03T07:21:17.403Z,45.80
2022-12-03T07:22:17.388Z,53.60
2022-12-03T07:23:17.397Z,52.10
2022-12-03T07:24:17.368Z,53.60
2022-12-03T07:25:22.917Z,52.00
2022-12-03T07:26:18.346Z,41.40
2022-12-03T07:27:17.326Z,33.70
2022-12-03T07:28:17.313Z,27.00
2022-12-03T07:29:17.305Z,24.70
2022-12-03T07:30:17.319Z,27.30
2022-12-03T07:31:17.348Z,26.70
2022-12-03T07:32:17.262Z,26.50
2022-12-03T07:33:17.250Z,25.60
2022-12-03T07:34:17.237Z,26.10
2022-12-03T07:35:17.247Z,26.80
2022-12-03T07:36:17.215Z,26.10
2022-12-03T07:37:22.697Z,27.50
2022-12-03T07:38:17.188Z,27.50
2022-12-03T07:39:17.194Z,24.40
2022-12-03T07:40:17.182Z,27.00
2022-12-03T07:41:17.149Z,24.00
2022-12-03T07:42:17.138Z,26.00
2022-12-03T07:43:17.128Z,24.50
2022-12-03T07:44:17.118Z,28.20
2022-12-03T07:45:17.115Z,27.40
2022-12-03T07:46:17.168Z,26.50
2022-12-03T07:47:17.071Z,25.50
2022-12-03T07:48:17.067Z,27.30
2022-12-03T07:49:17.047Z,29.10
2022-12-03T07:50:17.051Z,27.30
2022-12-03T07:51:17.021Z,27.30
2022-12-03T07:52:17.013Z,24.90
2022-12-03T07:53:16.995Z,26.80
2022-12-03T07:54:16.985Z,26.50
2022-12-03T07:55:17.007Z,27.40
2022-12-03T07:56:16.959Z,25.90
2022-12-03T07:57:16.949Z,26.80
2022-12-03T07:58:16.934Z,24.90
2022-12-03T07:59:16.920Z,25.30
2022-12-03T08:00:16.930Z,28.30
2022-12-03T08:01:16.950Z,26.50
2022-12-03T08:02:21.237Z,29.00
2022-12-03T08:03:16.871Z,25.90
2022-12-03T08:04:16.867Z,25.30
2022-12-03T08:05:16.864Z,24.20
2022-12-03T08:06:16.832Z,27.50
2022-12-03T08:07:16.821Z,28.70
2022-12-03T08:08:16.969Z,25.00
2022-12-03T08:09:16.795Z,28.10
2022-12-03T08:10:16.801Z,26.30
2022-12-03T08:11:16.797Z,26.40
2022-12-03T08:12:16.762Z,26.90
2022-12-03T08:13:16.773Z,27.50
2022-12-03T08:14:16.736Z,28.20
2022-12-03T08:15:16.736Z,25.30
2022-12-03T08:16:16.839Z,25.30
2022-12-03T08:17:16.691Z,26.80
2022-12-03T08:18:16.686Z,25.40
2022-12-03T08:19:16.675Z,27.30
2022-12-03T08:20:16.675Z,27.70
2022-12-03T08:21:16.652Z,27.80
2022-12-03T08:22:16.638Z,25.90
2022-12-03T08:23:16.640Z,26.90
2022-12-03T08:24:16.612Z,26.20
2022-12-03T08:25:16.612Z,25.70
2022-12-03T08:26:16.581Z,28.30
2022-12-03T08:27:16.601Z,26.60
2022-12-03T08:28:16.568Z,26.00
2022-12-03T08:29:16.546Z,26.20
2022-12-03T08:30:16.535Z,26.20
2022-12-03T08:31:16.593Z,27.70
2022-12-03T08:32:16.575Z,28.50
2022-12-03T08:33:16.502Z,29.40
2022-12-03T08:34:16.486Z,27.10
2022-12-03T08:35:16.473Z,26.50
2022-12-03T08:36:16.473Z,25.90
2022-12-03T08:37:16.443Z,28.70
2022-12-03T08:38:16.432Z,28.10
2022-12-03T08:39:16.426Z,24.70
2022-12-03T08:40:16.409Z,25.60
2022-12-03T08:41:16.411Z,24.80
2022-12-03T08:42:16.382Z,27.20
2022-12-03T08:43:16.387Z,25.70
2022-12-03T08:44:16.384Z,26.50
2022-12-03T08:45:16.343Z,26.30
2022-12-03T08:46:16.448Z,27.30
2022-12-03T08:47:16.320Z,26.20
2022-12-03T08:48:16.307Z,25.60
2022-12-03T08:49:16.297Z,26.60
2022-12-03T08:50:16.280Z,26.20
2022-12-03T08:51:16.283Z,27.10
2022-12-03T08:52:16.254Z,26.60
2022-12-03T08:53:16.244Z,27.70
2022-12-03T08:54:16.231Z,27.70
2022-12-03T08:55:16.216Z,26.40
2022-12-03T08:56:16.247Z,26.60
2022-12-03T08:57:16.191Z,27.30
2022-12-03T08:58:16.181Z,25.80
2022-12-03T08:59:16.184Z,24.50
2022-12-03T09:00:16.158Z,27.40
2022-12-03T09:01:16.249Z,25.80
2022-12-03T09:02:16.131Z,24.90
2022-12-03T09:03:16.122Z,26.00
2022-12-03T09:04:16.226Z,25.30
2022-12-03T09:05:16.094Z,26.80
2022-12-03T09:06:16.105Z,27.70
2022-12-03T09:07:16.090Z,27.40
2022-12-03T09:08:16.131Z,27.20
2022-12-03T09:09:16.044Z,26.60
2022-12-03T09:10:16.033Z,26.10
2022-12-03T09:11:16.030Z,27.60
2022-12-03T09:12:16.003Z,28.00
2022-12-03T09:13:15.991Z,26.10
2022-12-03T09:14:18.767Z,25.20
2022-12-03T09:15:15.984Z,25.20
2022-12-03T09:16:16.023Z,25.40
2022-12-03T09:17:15.942Z,27.00
2022-12-03T09:18:15.952Z,26.30
2022-12-03T09:19:15.923Z,25.30
2022-12-03T09:20:15.909Z,25.40
2022-12-03T09:21:15.905Z,27.60
2022-12-03T09:22:15.883Z,25.60
2022-12-03T09:23:15.866Z,23.90
2022-12-03T09:24:15.858Z,26.80
2022-12-03T09:25:15.839Z,24.60
2022-12-03T09:26:15.846Z,25.30
2022-12-03T09:27:15.815Z,27.70
2022-12-03T09:28:15.804Z,25.10
2022-12-03T09:29:15.800Z,26.60
2022-12-03T09:30:15.784Z,27.60
2022-12-03T09:31:15.931Z,27.60
2022-12-03T09:32:18.564Z,28.00
2022-12-03T09:33:15.740Z,26.70
2022-12-03T09:34:15.729Z,28.60
2022-12-03T09:35:15.718Z,25.70
2022-12-03T09:36:15.703Z,25.60
2022-12-03T09:37:15.706Z,24.90
2022-12-03T09:38:15.686Z,24.80
2022-12-03T09:39:15.667Z,25.50
2022-12-03T09:40:15.656Z,29.00
2022-12-03T09:41:15.639Z,25.40
2022-12-03T09:42:15.961Z,25.50
2022-12-03T09:43:15.625Z,26.50
2022-12-03T09:44:18.119Z,26.70
2022-12-03T09:45:15.586Z,27.20
2022-12-03T09:46:15.676Z,29.90
2022-12-03T09:47:15.595Z,27.10
2022-12-03T09:48:15.565Z,30.90
2022-12-03T09:49:16.299Z,32.40
2022-12-03T09:50:15.524Z,29.20
2022-12-03T09:51:15.511Z,30.30
2022-12-03T09:52:15.515Z,36.10
2022-12-03T09:53:15.487Z,35.30
2022-12-03T09:54:15.473Z,31.10
2022-12-03T09:55:15.466Z,28.30
2022-12-03T09:56:15.459Z,25.70
2022-12-03T09:57:15.485Z,31.00
2022-12-03T09:58:15.423Z,29.70
2022-12-03T09:59:15.409Z,39.70
2022-12-03T10:00:15.398Z,38.20
2022-12-03T10:01:15.456Z,28.70
2022-12-03T10:02:15.387Z,28.60
2022-12-03T10:03:15.381Z,26.30
2022-12-03T10:04:15.401Z,25.80
2022-12-03T10:05:15.334Z,27.80
2022-12-03T10:06:15.326Z,28.70
2022-12-03T10:07:15.323Z,27.40
2022-12-03T10:08:15.433Z,27.10
2022-12-03T10:09:15.285Z,26.30
2022-12-03T10:10:15.270Z,27.00
2022-12-03T10:11:15.256Z,29.90
2022-12-03T10:12:15.256Z,29.20
2022-12-03T10:13:15.229Z,30.70
2022-12-03T10:14:15.220Z,29.40
2022-12-03T10:15:15.208Z,29.20
2022-12-03T10:16:15.241Z,28.50
2022-12-03T10:17:15.261Z,32.40
2022-12-03T10:18:15.180Z,29.40
2022-12-03T10:19:15.177Z,30.10
2022-12-03T10:20:15.139Z,30.10
2022-12-03T10:21:15.128Z,30.00
2022-12-03T10:22:15.127Z,31.00
2022-12-03T10:23:15.101Z,29.60
2022-12-03T10:24:15.088Z,27.30
2022-12-03T10:25:15.075Z,28.70
2022-12-03T10:26:15.066Z,30.20
2022-12-03T10:27:15.063Z,26.60
2022-12-03T10:28:15.035Z,27.30
2022-12-03T10:29:15.021Z,27.40
2022-12-03T10:30:15.122Z,29.90
2022-12-03T10:31:15.094Z,28.60
2022-12-03T10:32:15.068Z,27.30
2022-12-03T10:33:18.878Z,28.60
2022-12-03T10:34:14.960Z,26.90
2022-12-03T10:35:14.967Z,28.50
2022-12-03T10:36:14.933Z,31.60
2022-12-03T10:37:14.965Z,26.30
2022-12-03T10:38:14.907Z,29.40
2022-12-03T10:39:14.891Z,27.70
2022-12-03T10:40:14.878Z,26.50
2022-12-03T10:41:14.869Z,28.60
2022-12-03T10:42:14.864Z,26.10
2022-12-03T10:43:14.844Z,26.50
2022-12-03T10:44:14.824Z,26.40
2022-12-03T10:45:14.811Z,27.40
2022-12-03T10:46:14.971Z,29.40
2022-12-03T10:47:14.906Z,26.80
2022-12-03T10:48:14.802Z,29.00
2022-12-03T10:49:14.765Z,25.90
2022-12-03T10:50:14.745Z,26.10
2022-12-03T10:51:14.752Z,28.50
2022-12-03T10:52:14.723Z,26.00
2022-12-03T10:53:14.723Z,26.60
2022-12-03T10:54:14.710Z,27.20
2022-12-03T10:55:14.685Z,26.90
2022-12-03T10:56:14.675Z,27.70
2022-12-03T10:57:14.744Z,29.00
2022-12-03T10:58:14.655Z,25.80
2022-12-03T10:59:14.633Z,25.80
2022-12-03T11:00:14.615Z,28.70
2022-12-03T11:01:14.713Z,27.40
2022-12-03T11:02:14.588Z,29.30
2022-12-03T11:03:14.647Z,29.30
2022-12-03T11:04:14.582Z,29.10
2022-12-03T11:05:14.548Z,26.30
2022-12-03T11:06:14.546Z,27.20
2022-12-03T11:07:14.544Z,27.60
2022-12-03T11:08:14.561Z,28.40
2022-12-03T11:09:14.499Z,28.10
2022-12-03T11:10:14.483Z,27.20
2022-12-03T11:11:14.470Z,26.20
2022-12-03T11:12:14.455Z,27.90
2022-12-03T11:13:14.460Z,27.20
2022-12-03T11:14:18.162Z,27.30
2022-12-03T11:15:14.422Z,26.50
2022-12-03T11:16:14.469Z,27.10
2022-12-03T11:17:14.392Z,26.10
2022-12-03T11:18:14.392Z,26.20
2022-12-03T11:19:14.370Z,28.50
2022-12-03T11:20:19.448Z,26.70
2022-12-03T11:21:15.388Z,28.70
2022-12-03T11:22:15.334Z,28.30
2022-12-03T11:23:14.352Z,24.50
2022-12-03T11:24:14.307Z,25.40
2022-12-03T11:25:14.293Z,28.40
2022-12-03T11:26:18.883Z,29.50
2022-12-03T11:27:14.268Z,26.80
2022-12-03T11:28:14.268Z,31.50
2022-12-03T11:29:14.241Z,29.60
2022-12-03T11:30:14.250Z,30.60
2022-12-03T11:31:14.296Z,27.10
2022-12-03T11:32:14.208Z,26.80
2022-12-03T11:33:14.208Z,28.30
2022-12-03T11:34:14.196Z,26.00
2022-12-03T11:35:14.167Z,27.30
2022-12-03T11:36:14.150Z,26.80
2022-12-03T11:37:14.135Z,23.30
2022-12-03T11:38:14.135Z,26.10
2022-12-03T11:39:14.147Z,24.90
2022-12-03T11:40:14.104Z,25.40
2022-12-03T11:41:14.089Z,26.10
2022-12-03T11:42:14.069Z,26.60
2022-12-03T11:43:14.076Z,25.60
2022-12-03T11:44:14.053Z,25.00
2022-12-03T11:45:14.035Z,26.10
2022-12-03T11:46:14.061Z,28.00
2022-12-03T11:47:14.010Z,27.30
2022-12-03T11:48:14.025Z,25.50
2022-12-03T11:49:13.986Z,28.30
2022-12-03T11:50:13.978Z,27.20
2022-12-03T11:51:13.958Z,25.90
2022-12-03T11:52:13.946Z,27.50
2022-12-03T11:53:13.930Z,26.70
2022-12-03T11:54:13.935Z,25.70
2022-12-03T11:55:13.925Z,25.70
2022-12-03T11:56:13.897Z,24.90
2022-12-03T11:57:13.879Z,27.40
2022-12-03T11:58:13.873Z,26.90
2022-12-03T11:59:13.905Z,27.00
2022-12-03T12:00:13.845Z,27.30
2022-12-03T12:01:13.833Z,25.70
2022-12-03T12:02:13.813Z,27.60
2022-12-03T12:03:13.970Z,26.50
2022-12-03T12:04:13.969Z,28.60
2022-12-03T12:05:13.780Z,27.00
2022-12-03T12:06:13.763Z,26.20
2022-12-03T12:07:13.752Z,27.10
2022-12-03T12:08:13.814Z,27.60
2022-12-03T12:09:13.744Z,26.90
2022-12-03T12:10:13.713Z,27.10
2022-12-03T12:11:13.722Z,30.40
2022-12-03T12:12:13.690Z,28.30
2022-12-03T12:13:13.712Z,27.30
2022-12-03T12:14:13.686Z,29.40
2022-12-03T12:15:13.653Z,28.20
2022-12-03T12:16:13.673Z,27.30
2022-12-03T12:17:13.626Z,28.20
2022-12-03T12:18:13.611Z,29.30
2022-12-03T12:19:13.615Z,28.20
2022-12-03T12:20:13.581Z,28.90
2022-12-03T12:21:13.575Z,26.90
2022-12-03T12:22:13.564Z,29.80
2022-12-03T12:23:13.554Z,27.00
2022-12-03T12:24:13.548Z,27.50
2022-12-03T12:25:13.528Z,27.60
2022-12-03T12:26:13.528Z,26.70
2022-12-03T12:27:13.515Z,25.10
2022-12-03T12:28:13.480Z,27.50
2022-12-03T12:29:13.488Z,27.00
2022-12-03T12:30:13.461Z,26.90
2022-12-03T12:31:13.522Z,27.30
2022-12-03T12:32:13.429Z,28.40
2022-12-03T12:33:13.420Z,26.00
2022-12-03T12:34:13.420Z,27.20
2022-12-03T12:35:13.389Z,27.30
2022-12-03T12:36:13.382Z,27.90
2022-12-03T12:37:13.376Z,28.20
2022-12-03T12:38:13.349Z,30.00
2022-12-03T12:39:13.354Z,30.10
2022-12-03T12:40:13.327Z,30.70
2022-12-03T12:41:13.312Z,32.00
2022-12-03T12:42:13.301Z,29.00
2022-12-03T12:43:17.610Z,29.70
2022-12-03T12:44:14.292Z,29.40
2022-12-03T12:45:13.261Z,28.10
2022-12-03T12:46:46.245Z,32.60
2022-12-03T12:47:14.277Z,33.70
2022-12-03T12:48:13.219Z,33.30
2022-12-03T12:49:13.223Z,35.50
2022-12-03T12:50:13.252Z,33.30
2022-12-03T12:51:13.185Z,32.60
2022-12-03T12:52:13.176Z,30.40